Time;durP1;ratioP1;P1;durP2;ratioP2;P2;SDS_P1;SDS_P2;PMS_P1;PMS_P2;Temp;Humidity;BMP_temperature;BMP_pressure;BME280_temperature;BME280_humidity;BME280_pressure;Samples;Min_cycle;Max_cycle;Signal;HPM_P1;HPM_P2
2024/04/14 00:00:13;;;;;;;5.50;3.90;;;14.40;65.80;;;;;;5490391;26;20508;-73
2024/04/14 00:02:39;;;;;;;5.77;4.17;;;14.30;66.10;;;;;;5489669;26;21075;-72
2024/04/14 00:05:08;;;;;;;5.83;3.70;;;14.20;66.50;;;;;;5490655;26;20557;-72
2024/04/14 00:07:34;;;;;;;10.03;3.37;;;14.20;66.60;;;;;;5491140;26;20451;-72
2024/04/14 00:10:03;;;;;;;6.03;3.17;;;14.30;66.40;;;;;;5489815;26;20467;-72
2024/04/14 00:12:29;;;;;;;4.67;3.20;;;14.30;66.20;;;;;;5490488;26;20840;-72
2024/04/14 00:15:00;;;;;;;9.30;3.77;;;14.30;66.00;;;;;;5490660;26;20507;-71
2024/04/14 00:17:27;;;;;;;5.27;2.73;;;14.40;65.70;;;;;;5490693;26;20821;-72
2024/04/14 00:19:56;;;;;;;3.77;2.00;;;14.50;65.20;;;;;;5490516;26;20455;-72
2024/04/14 00:22:22;;;;;;;4.97;3.07;;;14.50;65.00;;;;;;5489982;26;20791;-72
2024/04/14 00:24:52;;;;;;;5.27;2.93;;;14.50;64.10;;;;;;5490966;26;20479;-72
2024/04/14 00:27:18;;;;;;;5.80;2.80;;;14.50;64.00;;;;;;5491563;26;20508;-72
2024/04/14 00:29:47;;;;;;;8.07;4.20;;;14.60;63.60;;;;;;5490478;26;20507;-71
2024/04/14 00:32:16;;;;;;;4.47;2.80;;;14.50;62.90;;;;;;5489761;26;20759;-72
2024/04/14 00:34:45;;;;;;;8.93;3.70;;;14.50;62.70;;;;;;5490502;26;20451;-72
2024/04/14 00:37:14;;;;;;;5.63;3.30;;;14.40;63.00;;;;;;5490610;26;20772;-71
2024/04/14 00:39:42;;;;;;;6.40;4.40;;;14.40;63.40;;;;;;5490328;26;20542;-72
2024/04/14 00:42:10;;;;;;;6.77;3.03;;;14.30;63.40;;;;;;5490033;26;20519;-72
2024/04/14 00:44:39;;;;;;;7.47;3.43;;;14.30;63.20;;;;;;5490422;26;20506;-72
2024/04/14 00:47:06;;;;;;;5.20;3.30;;;14.20;63.20;;;;;;5490310;26;20574;-72
2024/04/14 00:49:39;;;;;;;5.60;3.10;;;14.30;63.20;;;;;;5490471;26;20530;-72
2024/04/14 00:52:06;;;;;;;5.40;3.30;;;14.30;63.00;;;;;;5490263;26;20452;-72
2024/04/14 00:54:35;;;;;;;6.30;3.40;;;14.20;62.60;;;;;;5489822;26;20596;-72
2024/04/14 00:57:06;;;;;;;4.07;2.60;;;14.10;62.30;;;;;;5490111;26;20499;-72
2024/04/14 00:59:36;;;;;;;5.17;3.23;;;14.00;62.80;;;;;;5490375;26;20455;-72
2024/04/14 01:02:02;;;;;;;8.70;3.50;;;14.00;62.50;;;;;;5490184;26;20445;-72
2024/04/14 01:04:31;;;;;;;5.60;3.20;;;14.00;62.50;;;;;;5490383;26;20514;-72
2024/04/14 01:07:00;;;;;;;9.07;3.80;;;14.00;62.20;;;;;;5489151;26;20524;-72
2024/04/14 01:09:28;;;;;;;6.97;3.80;;;14.10;61.70;;;;;;5489985;26;20588;-72
2024/04/14 01:11:54;;;;;;;6.70;3.97;;;14.10;61.40;;;;;;5490438;26;20456;-72
2024/04/14 01:14:25;;;;;;;8.13;4.00;;;14.10;61.00;;;;;;5489852;26;20494;-71
2024/04/14 01:16:51;;;;;;;5.07;3.30;;;14.10;59.90;;;;;;5489381;26;20439;-72
2024/04/14 01:19:19;;;;;;;6.53;3.60;;;14.10;59.80;;;;;;5489740;26;20589;-72
2024/04/14 01:21:45;;;;;;;5.37;3.10;;;14.10;59.70;;;;;;5488799;26;20447;-72
2024/04/14 01:24:17;;;;;;;8.13;4.30;;;14.10;59.60;;;;;;5488420;26;20506;-72
2024/04/14 01:26:45;;;;;;;4.23;2.80;;;14.00;59.20;;;;;;5488828;26;20470;-72
2024/04/14 01:29:14;;;;;;;5.50;4.07;;;14.10;59.10;;;;;;5489494;26;20564;-72
2024/04/14 01:31:40;;;;;;;5.30;3.20;;;14.10;59.10;;;;;;5489451;26;20451;-72
2024/04/14 01:34:09;;;;;;;7.17;3.20;;;14.00;58.90;;;;;;5489468;26;20455;-71
2024/04/14 01:36:35;;;;;;;4.40;2.20;;;14.10;58.50;;;;;;5488765;26;20523;-72
2024/04/14 01:39:04;;;;;;;5.30;2.20;;;14.10;58.10;;;;;;5489358;26;20447;-72
2024/04/14 01:41:30;;;;;;;3.60;2.23;;;14.10;58.00;;;;;;5489729;26;20444;-72
2024/04/14 01:44:01;;;;;;;6.33;3.43;;;14.00;58.20;;;;;;5489500;26;20439;-72
2024/04/14 01:46:27;;;;;;;3.40;2.03;;;13.90;58.60;;;;;;5488621;26;20451;-72
2024/04/14 01:48:56;;;;;;;4.57;2.17;;;13.80;58.80;;;;;;5489175;26;20443;-72
2024/04/14 01:51:22;;;;;;;3.77;2.17;;;13.70;58.90;;;;;;5488759;26;20459;-72
2024/04/14 01:53:51;;;;;;;4.70;2.10;;;13.70;59.10;;;;;;5489744;26;20454;-72
2024/04/14 01:56:17;;;;;;;5.90;2.03;;;13.70;59.10;;;;;;5489507;26;20455;-71
2024/04/14 01:58:46;;;;;;;4.30;2.10;;;13.80;58.80;;;;;;5488690;26;20869;-72
2024/04/14 02:01:15;;;;;;;3.00;2.03;;;13.80;59.10;;;;;;5489068;26;20447;-71
2024/04/14 02:03:43;;;;;;;4.10;2.33;;;13.80;59.40;;;;;;5489028;26;20447;-72
2024/04/14 02:06:09;;;;;;;4.73;2.67;;;13.80;59.30;;;;;;5488814;26;20512;-71
2024/04/14 02:08:38;;;;;;;6.77;2.40;;;13.80;59.10;;;;;;5489254;26;20463;-72
2024/04/14 02:11:04;;;;;;;3.67;2.03;;;13.80;58.80;;;;;;5488327;26;20467;-72
2024/04/14 02:13:33;;;;;;;3.90;2.17;;;13.80;56.90;;;;;;5488871;26;21035;-72
2024/04/14 02:16:00;;;;;;;5.00;2.20;;;13.80;56.90;;;;;;5489600;26;20451;-72
2024/04/14 02:18:31;;;;;;;3.87;2.20;;;13.80;56.40;;;;;;5488773;26;20447;-71
2024/04/14 02:20:57;;;;;;;4.80;2.43;;;13.80;57.20;;;;;;5487454;26;21065;-72
2024/04/14 02:23:26;;;;;;;3.80;2.43;;;13.80;57.60;;;;;;5488105;26;20467;-72
2024/04/14 02:25:55;;;;;;;5.50;2.50;;;13.80;57.40;;;;;;5488603;26;20500;-72
2024/04/14 02:28:24;;;;;;;4.57;2.13;;;13.70;57.10;;;;;;5488427;26;20447;-72
2024/04/14 02:30:50;;;;;;;2.77;1.60;;;13.70;56.90;;;;;;5487883;26;20459;-71
2024/04/14 02:33:19;;;;;;;5.53;2.20;;;13.60;55.90;;;;;;5488025;26;20875;-72
2024/04/14 02:35:55;;;;;;;4.30;2.20;;;13.60;56.40;;;;;;5492093;26;20446;-72
2024/04/14 02:38:24;;;;;;;3.10;1.93;;;13.50;56.20;;;;;;5492205;26;20494;-71
2024/04/14 02:40:57;;;;;;;3.40;1.73;;;13.50;56.10;;;;;;5492029;26;20990;-72
2024/04/14 02:43:26;;;;;;;9.87;2.43;;;13.50;56.50;;;;;;5491407;26;20463;-72
2024/04/14 02:45:52;;;;;;;6.00;2.27;;;13.30;56.90;;;;;;5492712;26;20455;-71
2024/04/14 02:48:21;;;;;;;4.60;2.20;;;13.30;56.70;;;;;;5492250;26;20446;-71
2024/04/14 02:50:49;;;;;;;5.33;2.17;;;13.20;56.50;;;;;;5492187;26;20507;-72
2024/04/14 02:53:20;;;;;;;4.10;1.80;;;13.10;56.60;;;;;;5491369;26;20515;-71
2024/04/14 02:55:46;;;;;;;3.07;1.87;;;13.00;56.70;;;;;;5490879;26;20828;-72
2024/04/14 02:58:15;;;;;;;3.40;1.97;;;13.00;56.80;;;;;;5492153;26;20444;-72
2024/04/14 03:00:41;;;;;;;3.43;1.80;;;13.00;56.90;;;;;;5492103;26;20455;-72
2024/04/14 03:03:10;;;;;;;4.53;2.07;;;13.00;57.00;;;;;;5491966;26;20590;-71
2024/04/14 03:05:36;;;;;;;4.50;1.57;;;13.00;57.20;;;;;;5491336;26;21021;-72
2024/04/14 03:08:05;;;;;;;4.00;1.83;;;13.10;56.10;;;;;;5491331;26;20471;-72
2024/04/14 03:10:34;;;;;;;3.00;1.93;;;13.00;56.10;;;;;;5491412;26;20467;-72
2024/04/14 03:13:02;;;;;;;3.50;1.83;;;13.00;56.80;;;;;;5491413;26;20516;-72
2024/04/14 03:15:29;;;;;;;2.80;1.80;;;12.90;56.90;;;;;;5491950;26;20451;-72
2024/04/14 03:17:58;;;;;;;9.43;4.40;;;12.90;57.40;;;;;;5491540;26;20746;-72
2024/04/14 03:20:24;;;;;;;8.13;4.43;;;13.00;56.40;;;;;;5490991;26;20524;-72
2024/04/14 03:22:54;;;;;;;6.87;4.00;;;13.00;56.30;;;;;;5491544;26;20439;-71
2024/04/14 03:25:21;;;;;;;6.23;4.03;;;12.90;55.70;;;;;;5491581;26;20765;-72
2024/04/14 03:27:52;;;;;;;5.60;3.47;;;12.90;55.70;;;;;;5491486;26;20557;-72
2024/04/14 03:30:18;;;;;;;5.17;2.97;;;12.90;56.20;;;;;;5492141;26;20980;-71
2024/04/14 03:32:46;;;;;;;5.33;2.70;;;12.80;56.40;;;;;;5490620;26;20503;-72
2024/04/14 03:35:13;;;;;;;4.50;3.03;;;12.80;56.70;;;;;;5491198;26;20638;-71
2024/04/14 03:37:42;;;;;;;3.43;2.63;;;12.70;56.80;;;;;;5492051;26;20461;-72
2024/04/14 03:40:12;;;;;;;4.97;2.63;;;12.70;57.20;;;;;;5490552;26;20850;-72
2024/04/14 03:42:40;;;;;;;4.93;2.17;;;12.60;57.40;;;;;;5490811;26;20455;-71
2024/04/14 03:45:18;;;;;;;3.47;2.53;;;12.50;57.60;;;;;;5489101;26;20492;-72
2024/04/14 03:47:47;;;;;;;4.07;1.87;;;12.50;57.70;;;;;;5491216;26;20482;-71
2024/04/14 03:50:13;;;;;;;4.30;2.22;;;12.40;57.50;;;;;;5490313;26;20432;-72
2024/04/14 03:52:43;;;;;;;4.32;2.20;;;12.40;57.80;;;;;;5491461;26;20218;-71
2024/04/14 03:55:12;;;;;;;3.97;1.98;;;12.30;56.80;;;;;;5490769;26;20225;-71
2024/04/14 03:57:38;;;;;;;3.28;2.10;;;12.10;57.00;;;;;;5490991;26;20214;-72
2024/04/14 04:00:12;;;;;;;3.47;2.20;;;12.00;57.60;;;;;;5490828;26;20241;-72
2024/04/14 04:02:38;;;;;;;4.63;2.50;;;11.90;58.30;;;;;;5491259;26;20321;-71
2024/04/14 04:05:07;;;;;;;5.50;2.80;;;11.90;58.40;;;;;;5490193;26;20570;-71
2024/04/14 04:07:34;;;;;;;3.40;2.38;;;11.90;58.50;;;;;;5490755;26;20269;-71
2024/04/14 04:10:02;;;;;;;4.93;2.30;;;11.90;58.70;;;;;;5490873;26;20214;-71
2024/04/14 04:12:28;;;;;;;5.10;2.80;;;12.00;58.60;;;;;;5490722;26;20253;-72
2024/04/14 04:14:57;;;;;;;5.30;2.63;;;11.90;58.40;;;;;;5491212;26;21040;-72
2024/04/14 04:17:25;;;;;;;6.07;2.70;;;11.90;58.50;;;;;;5490635;26;20580;-71
2024/04/14 04:19:54;;;;;;;3.50;2.35;;;11.90;58.90;;;;;;5490221;26;20230;-71
2024/04/14 04:22:20;;;;;;;4.97;2.28;;;11.80;59.30;;;;;;5490847;26;20306;-72
2024/04/14 04:24:51;;;;;;;4.28;2.90;;;11.80;59.50;;;;;;5490879;26;20263;-71
2024/04/14 04:27:17;;;;;;;3.63;2.08;;;11.80;59.60;;;;;;5491187;26;20634;-72
2024/04/14 04:29:46;;;;;;;4.55;2.35;;;11.80;59.70;;;;;;5490879;26;20260;-72
2024/04/14 04:32:16;;;;;;;7.22;2.70;;;11.80;59.10;;;;;;5490523;26;20214;-72
2024/04/14 04:34:48;;;;;;;4.15;2.40;;;11.70;58.70;;;;;;5489995;26;20334;-71
2024/04/14 04:37:15;;;;;;;4.18;2.50;;;11.60;59.00;;;;;;5489954;26;20219;-71
2024/04/14 04:39:43;;;;;;;3.78;2.70;;;11.50;59.50;;;;;;5490113;26;20262;-71
2024/04/14 04:42:09;;;;;;;3.20;2.33;;;11.50;59.70;;;;;;5490198;26;20210;-72
2024/04/14 04:44:43;;;;;;;3.55;2.40;;;11.40;59.90;;;;;;5490223;26;20708;-71
2024/04/14 04:47:09;;;;;;;5.55;2.72;;;11.40;60.70;;;;;;5490245;26;20319;-71
2024/04/14 04:49:38;;;;;;;8.30;5.25;;;11.40;60.60;;;;;;5489228;26;20269;-72
2024/04/14 04:52:07;;;;;;;6.00;3.58;;;11.40;60.60;;;;;;5489646;26;20269;-72
2024/04/14 04:54:35;;;;;;;3.72;2.72;;;11.30;60.90;;;;;;5488915;26;20486;-71
2024/04/14 04:57:06;;;;;;;4.03;2.63;;;11.30;60.70;;;;;;5488622;26;20726;-72
2024/04/14 04:59:37;;;;;;;6.18;2.53;;;11.30;61.10;;;;;;5489667;26;20340;-71
2024/04/14 05:02:03;;;;;;;3.80;2.10;;;11.20;61.00;;;;;;5488664;26;20575;-71
2024/04/14 05:04:33;;;;;;;5.10;3.10;;;11.20;60.70;;;;;;5489575;26;20226;-71
2024/04/14 05:07:01;;;;;;;6.30;2.88;;;11.30;60.80;;;;;;5489096;26;20261;-71
2024/04/14 05:09:33;;;;;;;6.13;2.58;;;11.30;60.70;;;;;;5489515;26;20210;-71
2024/04/14 05:11:59;;;;;;;4.05;2.40;;;11.40;60.80;;;;;;5489538;26;20268;-71
2024/04/14 05:14:27;;;;;;;5.60;2.47;;;11.50;60.90;;;;;;5489796;26;20218;-71
2024/04/14 05:16:53;;;;;;;4.82;2.25;;;11.50;59.80;;;;;;5489481;26;20957;-71
2024/04/14 05:19:22;;;;;;;3.70;2.03;;;11.60;60.20;;;;;;5486619;26;20226;-72
2024/04/14 05:21:48;;;;;;;5.55;3.03;;;11.70;59.80;;;;;;5488827;26;20218;-72
2024/04/14 05:24:17;;;;;;;4.25;2.25;;;11.80;59.20;;;;;;5488625;26;20269;-72
2024/04/14 05:26:45;;;;;;;5.05;3.20;;;11.90;59.30;;;;;;5488228;26;20218;-72
2024/04/14 05:29:14;;;;;;;4.97;3.55;;;11.90;59.00;;;;;;5487907;26;20230;-71
2024/04/14 05:31:40;;;;;;;7.47;4.32;;;12.10;59.40;;;;;;5488674;26;20290;-72
2024/04/14 05:34:09;;;;;;;7.53;4.85;;;12.20;58.90;;;;;;5488463;26;20217;-72
2024/04/14 05:36:35;;;;;;;5.83;3.33;;;12.20;58.40;;;;;;5487931;26;20214;-72
2024/04/14 05:39:04;;;;;;;5.05;3.00;;;12.40;56.60;;;;;;5488565;26;20451;-72
2024/04/14 05:41:30;;;;;;;5.50;2.50;;;12.40;56.80;;;;;;5488390;26;20305;-71
2024/04/14 05:44:01;;;;;;;5.30;2.20;;;12.50;56.50;;;;;;5488490;26;20793;-72
2024/04/14 05:46:27;;;;;;;4.23;2.43;;;12.60;56.80;;;;;;5488385;26;21334;-72
2024/04/14 05:48:56;;;;;;;5.20;2.30;;;12.70;55.90;;;;;;5488375;26;20770;-72
2024/04/14 05:51:22;;;;;;;6.53;4.15;;;12.80;55.70;;;;;;5487736;26;20459;-72
2024/04/14 05:53:51;;;;;;;5.17;3.23;;;13.00;55.10;;;;;;5488171;26;20217;-72
2024/04/14 05:56:17;;;;;;;3.60;2.10;;;13.00;55.50;;;;;;5487642;26;20478;-72
2024/04/14 05:58:45;;;;;;;4.00;2.10;;;13.20;54.40;;;;;;5488033;26;20455;-72
2024/04/14 06:01:14;;;;;;;3.50;1.80;;;13.30;54.60;;;;;;5487849;26;20509;-72
2024/04/14 06:03:43;;;;;;;2.87;1.70;;;13.40;53.10;;;;;;5488024;26;20531;-72
2024/04/14 06:06:08;;;;;;;3.73;2.10;;;13.40;53.80;;;;;;5487731;26;20650;-71
2024/04/14 06:08:43;;;;;;;4.83;2.30;;;13.50;54.30;;;;;;5487792;26;20471;-72
2024/04/14 06:11:09;;;;;;;4.90;2.07;;;13.60;54.00;;;;;;5492063;26;20459;-72
2024/04/14 06:13:38;;;;;;;5.80;2.07;;;13.70;54.90;;;;;;5491409;26;20444;-72
2024/04/14 06:16:04;;;;;;;5.00;2.03;;;13.90;54.60;;;;;;5491258;26;20524;-72
2024/04/14 06:18:35;;;;;;;5.23;2.67;;;14.00;55.00;;;;;;5491344;26;20459;-72
2024/04/14 06:21:03;;;;;;;2.80;1.70;;;14.20;57.40;;;;;;5486529;26;20463;-72
2024/04/14 06:23:32;;;;;;;4.00;2.10;;;14.40;57.50;;;;;;5491211;26;20459;-72
2024/04/14 06:25:59;;;;;;;3.20;1.60;;;14.60;57.60;;;;;;5491392;26;20578;-72
2024/04/14 06:28:27;;;;;;;2.80;1.73;;;14.80;59.00;;;;;;5491429;26;20471;-72
2024/04/14 06:30:54;;;;;;;4.57;1.83;;;14.90;59.50;;;;;;5491594;26;21009;-72
2024/04/14 06:33:22;;;;;;;4.27;2.50;;;15.10;60.20;;;;;;5490776;26;20447;-72
2024/04/14 06:35:51;;;;;;;2.90;1.80;;;15.40;59.60;;;;;;5491383;26;20467;-72
2024/04/14 06:38:20;;;;;;;3.00;1.70;;;15.50;58.90;;;;;;5491002;26;20530;-72
2024/04/14 06:40:46;;;;;;;5.20;1.77;;;15.70;58.40;;;;;;5491316;26;20785;-74
2024/04/14 06:43:16;;;;;;;4.33;1.53;;;15.90;59.40;;;;;;5491428;26;20549;-72
2024/04/14 06:45:45;;;;;;;3.90;1.83;;;16.10;58.70;;;;;;5490955;26;20557;-72
2024/04/14 06:48:15;;;;;;;7.10;1.57;;;16.30;58.80;;;;;;5491279;26;20526;-72
2024/04/14 06:50:41;;;;;;;3.00;1.60;;;16.40;59.00;;;;;;5490877;26;20466;-72
2024/04/14 06:53:13;;;;;;;4.00;1.40;;;16.60;59.80;;;;;;5491428;26;20454;-72
2024/04/14 06:55:41;;;;;;;3.87;2.10;;;16.80;63.00;;;;;;5490815;26;20466;-72
2024/04/14 06:58:09;;;;;;;3.13;1.80;;;17.00;61.10;;;;;;5491151;26;20462;-72
2024/04/14 07:00:35;;;;;;;5.30;1.80;;;17.30;53.90;;;;;;5491020;26;21016;-72
2024/04/14 07:03:04;;;;;;;2.40;1.00;;;17.50;52.90;;;;;;5491177;26;20454;-72
2024/04/14 07:05:30;;;;;;;2.50;1.20;;;17.60;51.00;;;;;;5490219;26;21024;-73
2024/04/14 07:07:58;;;;;;;3.37;1.60;;;17.80;50.40;;;;;;5490718;26;20457;-72
2024/04/14 07:10:27;;;;;;;3.20;1.37;;;18.00;49.10;;;;;;5491195;26;20451;-72
2024/04/14 07:12:56;;;;;;;5.23;1.17;;;18.20;49.80;;;;;;5491072;26;20453;-73
2024/04/14 07:15:21;;;;;;;5.67;1.33;;;18.40;48.00;;;;;;5490858;26;20977;-72
2024/04/14 07:17:50;;;;;;;3.47;1.30;;;18.70;46.70;;;;;;5490902;26;20566;-72
2024/04/14 07:20:18;;;;;;;4.10;1.23;;;18.90;44.20;;;;;;5490575;26;20519;-72
2024/04/14 07:22:47;;;;;;;2.73;1.17;;;19.10;44.80;;;;;;5490351;26;20587;-72
2024/04/14 07:25:13;;;;;;;2.50;1.10;;;19.40;45.50;;;;;;5490612;26;20570;-72
2024/04/14 07:27:46;;;;;;;2.17;1.00;;;19.70;42.20;;;;;;5490915;26;20865;-72
2024/04/14 07:30:12;;;;;;;2.97;1.27;;;20.10;41.90;;;;;;5487645;26;20513;-72
2024/04/14 07:32:41;;;;;;;3.43;1.17;;;20.50;39.80;;;;;;5490448;26;20957;-73
2024/04/14 07:35:07;;;;;;;2.30;0.80;;;21.00;39.20;;;;;;5491151;26;20952;-72
2024/04/14 07:37:36;;;;;;;2.87;0.90;;;21.50;40.90;;;;;;5489841;26;20463;-72
2024/04/14 07:40:01;;;;;;;5.73;1.20;;;22.00;38.60;;;;;;5489629;26;20606;-73
2024/04/14 07:42:30;;;;;;;2.70;1.00;;;22.50;38.00;;;;;;5490874;26;20982;-71
2024/04/14 07:44:59;;;;;;;3.10;1.10;;;23.10;38.90;;;;;;5490468;26;21017;-72
2024/04/14 07:47:27;;;;;;;2.27;0.90;;;23.60;36.60;;;;;;5490180;26;20496;-72
2024/04/14 07:49:53;;;;;;;3.20;1.07;;;24.00;35.60;;;;;;5490111;26;20455;-72
2024/04/14 07:52:26;;;;;;;3.03;1.20;;;24.50;36.20;;;;;;5490182;26;20533;-73
2024/04/14 07:54:52;;;;;;;3.60;1.63;;;24.90;33.20;;;;;;5489156;26;20519;-72
2024/04/14 07:57:20;;;;;;;3.10;1.43;;;25.50;35.00;;;;;;5489644;26;20447;-73
2024/04/14 07:59:48;;;;;;;2.87;1.20;;;26.00;33.90;;;;;;5490166;26;20451;-72
2024/04/14 08:02:19;;;;;;;3.87;1.10;;;26.40;33.80;;;;;;5489979;26;20881;-72
2024/04/14 08:04:45;;;;;;;2.50;0.90;;;26.70;33.00;;;;;;5489610;26;20530;-73
2024/04/14 08:07:14;;;;;;;3.33;1.20;;;27.10;33.10;;;;;;5490240;26;20551;-73
2024/04/14 08:09:40;;;;;;;5.43;1.73;;;27.50;31.20;;;;;;5485112;26;20495;-73
2024/04/14 08:12:09;;;;;;;3.33;1.30;;;27.90;32.00;;;;;;5489021;26;20522;-73
2024/04/14 08:14:35;;;;;;;5.90;1.33;;;28.30;30.90;;;;;;5489921;26;20456;-73
2024/04/14 08:17:04;;;;;;;6.43;2.10;;;28.80;30.60;;;;;;5489210;26;20479;-72
2024/04/14 08:19:33;;;;;;;4.23;1.60;;;29.20;29.70;;;;;;5486713;26;21053;-70
2024/04/14 08:22:02;;;;;;;2.57;1.17;;;29.50;30.40;;;;;;5488171;26;20467;-71
2024/04/14 08:24:28;;;;;;;3.90;1.70;;;29.90;29.30;;;;;;5489648;26;20447;-70
2024/04/14 08:26:56;;;;;;;3.57;2.00;;;30.20;29.40;;;;;;5489040;26;20515;-70
2024/04/14 08:29:22;;;;;;;6.20;1.63;;;30.60;29.30;;;;;;5486411;26;20801;-70
2024/04/14 08:31:51;;;;;;;7.50;2.20;;;30.90;27.90;;;;;;5485152;26;21147;-71
2024/04/14 08:34:17;;;;;;;4.37;2.10;;;31.10;28.10;;;;;;5488632;26;20456;-70
2024/04/14 08:36:49;;;;;;;3.20;1.57;;;31.40;27.90;;;;;;5488982;26;20814;-70
2024/04/14 08:39:15;;;;;;;10.17;1.83;;;31.70;27.60;;;;;;5489736;26;20456;-70
2024/04/14 08:41:44;;;;;;;3.77;1.60;;;32.00;26.70;;;;;;5489208;26;21030;-70
2024/04/14 08:44:12;;;;;;;3.30;1.90;;;32.20;26.90;;;;;;5489685;26;21082;-70
2024/04/14 08:46:43;;;;;;;2.97;1.40;;;32.40;26.20;;;;;;5489756;26;20501;-70
2024/04/14 08:49:11;;;;;;;4.20;1.93;;;32.70;26.30;;;;;;5489318;26;20507;-70
2024/04/14 08:51:40;;;;;;;5.50;1.70;;;32.90;25.30;;;;;;5485694;26;20540;-70
2024/04/14 08:54:09;;;;;;;4.57;2.00;;;33.10;25.60;;;;;;5489444;26;20500;-70
2024/04/14 08:56:38;;;;;;;4.30;1.90;;;33.40;24.90;;;;;;5487820;26;20455;-71
2024/04/14 08:59:05;;;;;;;3.87;1.90;;;33.70;25.60;;;;;;5488860;26;20452;-71
2024/04/14 09:01:35;;;;;;;3.80;1.53;;;33.90;24.10;;;;;;5489101;26;20819;-70
2024/04/14 09:04:03;;;;;;;4.97;1.83;;;33.90;24.00;;;;;;5488139;26;20456;-71
2024/04/14 09:06:34;;;;;;;5.30;1.70;;;34.00;24.60;;;;;;5489387;26;20652;-70
2024/04/14 09:09:02;;;;;;;5.47;1.90;;;34.10;24.70;;;;;;5489715;26;20455;-70
2024/04/14 09:11:33;;;;;;;5.70;1.50;;;34.20;24.10;;;;;;5489199;26;20503;-71
2024/04/14 09:13:59;;;;;;;5.43;1.80;;;34.20;23.50;;;;;;5489328;26;20754;-70
2024/04/14 09:16:28;;;;;;;3.10;1.20;;;34.20;23.70;;;;;;5489154;26;20503;-71
2024/04/14 09:18:54;;;;;;;3.23;1.50;;;34.30;23.40;;;;;;5488473;26;20511;-70
2024/04/14 09:21:23;;;;;;;3.53;1.50;;;34.40;23.10;;;;;;5488526;26;21037;-70
2024/04/14 09:23:49;;;;;;;2.97;1.60;;;34.50;23.10;;;;;;5489064;26;20499;-70
2024/04/14 09:26:19;;;;;;;4.67;1.50;;;34.70;22.90;;;;;;5487990;26;20459;-71
2024/04/14 09:28:47;;;;;;;3.23;1.40;;;34.70;22.10;;;;;;5488553;26;20452;-70
2024/04/14 09:31:16;;;;;;;3.83;1.63;;;34.80;23.10;;;;;;5488091;26;20884;-70
2024/04/14 09:33:42;;;;;;;3.20;1.30;;;34.90;22.40;;;;;;5488433;26;20487;-70
2024/04/14 09:36:11;;;;;;;6.40;1.40;;;35.00;21.90;;;;;;5488528;26;20528;-70
2024/04/14 09:38:38;;;;;;;4.07;1.70;;;35.10;21.10;;;;;;5488774;26;20503;-70
2024/04/14 09:41:08;;;;;;;3.23;1.70;;;35.20;21.20;;;;;;5488689;26;20455;-70
2024/04/14 09:43:35;;;;;;;4.60;1.60;;;35.10;21.10;;;;;;5450617;26;20505;-70
2024/04/14 09:46:07;;;;;;;4.70;1.90;;;35.10;21.40;;;;;;5451707;26;20562;-70
2024/04/14 09:48:34;;;;;;;3.00;1.70;;;35.10;21.60;;;;;;5452221;26;20518;-70
2024/04/14 09:51:05;;;;;;;4.00;2.10;;;35.10;20.60;;;;;;5451509;26;20452;-70
2024/04/14 09:53:34;;;;;;;6.87;1.53;;;34.90;20.50;;;;;;5469477;26;20471;-71
2024/04/14 09:56:02;;;;;;;4.53;1.40;;;34.80;21.10;;;;;;5487851;26;20455;-72
2024/04/14 09:58:28;;;;;;;6.40;1.33;;;34.80;20.60;;;;;;5488393;26;20459;-70
2024/04/14 10:01:00;;;;;;;6.30;1.80;;;34.80;21.50;;;;;;5487735;26;20459;-70
2024/04/14 10:03:31;;;;;;;5.60;1.57;;;34.90;20.60;;;;;;5488360;26;20504;-70
2024/04/14 10:06:01;;;;;;;4.60;2.53;;;35.00;21.00;;;;;;5488282;26;20475;-70
2024/04/14 10:08:31;;;;;;;3.63;1.37;;;35.10;21.70;;;;;;5488388;26;20503;-71
2024/04/14 10:11:00;;;;;;;3.03;1.60;;;35.30;20.90;;;;;;5488401;26;20552;-70
2024/04/14 10:13:26;;;;;;;5.70;1.97;;;35.30;20.20;;;;;;5488272;26;20503;-70
2024/04/14 10:15:59;;;;;;;3.63;1.60;;;35.30;20.20;;;;;;5488181;26;20455;-70
2024/04/14 10:18:33;;;;;;;3.93;1.60;;;35.40;19.70;;;;;;5488790;26;20511;-70
2024/04/14 10:21:04;;;;;;;3.30;1.40;;;35.40;19.60;;;;;;5486709;26;20458;-70
2024/04/14 10:23:30;;;;;;;2.97;1.00;;;35.50;19.20;;;;;;5487821;26;20466;-70
2024/04/14 10:26:00;;;;;;;6.77;1.63;;;35.60;19.50;;;;;;5487785;26;20444;-70
2024/04/14 10:28:26;;;;;;;4.77;1.60;;;35.60;19.00;;;;;;5483510;26;20523;-71
2024/04/14 10:31:02;;;;;;;3.77;1.80;;;35.60;19.70;;;;;;5474045;26;20471;-71
2024/04/14 10:33:32;;;;;;;5.33;1.77;;;35.50;19.40;;;;;;5480301;26;20459;-70
2024/04/14 10:36:04;;;;;;;2.97;1.47;;;35.50;19.20;;;;;;5473682;26;20581;-73
2024/04/14 10:38:32;;;;;;;2.20;1.23;;;35.40;18.70;;;;;;5450704;26;20453;-71
2024/04/14 10:41:00;;;;;;;3.80;1.37;;;35.40;18.90;;;;;;5485045;26;20519;-70
2024/04/14 10:43:27;;;;;;;5.80;1.67;;;35.40;19.10;;;;;;5486334;26;20460;-70
2024/04/14 10:46:00;;;;;;;3.60;1.37;;;35.40;20.10;;;;;;5479563;26;20467;-71
2024/04/14 10:48:27;;;;;;;4.00;2.03;;;35.50;19.00;;;;;;5471384;26;20467;-70
2024/04/14 10:50:58;;;;;;;3.93;1.77;;;35.50;19.10;;;;;;5481340;26;20515;-70
2024/04/14 10:53:24;;;;;;;3.20;1.50;;;35.40;19.20;;;;;;5486792;26;20459;-72
2024/04/14 10:55:53;;;;;;;3.80;1.20;;;35.40;19.00;;;;;;5488225;26;20459;-71
2024/04/14 10:58:19;;;;;;;6.33;1.77;;;35.40;19.60;;;;;;5489332;26;20463;-70
2024/04/14 11:00:48;;;;;;;3.73;1.10;;;35.50;19.80;;;;;;5453427;26;21114;-71
2024/04/14 11:03:15;;;;;;;2.70;1.40;;;35.60;19.30;;;;;;5461380;26;20518;-70
2024/04/14 11:05:44;;;;;;;4.10;1.80;;;35.60;20.10;;;;;;5491083;26;20515;-70
2024/04/14 11:08:12;;;;;;;4.20;1.20;;;35.80;19.90;;;;;;5490546;26;20578;-70
2024/04/14 11:10:42;;;;;;;3.73;1.53;;;35.90;19.60;;;;;;5489360;26;20957;-71
2024/04/14 11:13:08;;;;;;;2.50;1.30;;;35.80;18.70;;;;;;5490439;26;20455;-70
2024/04/14 11:15:39;;;;;;;3.60;1.53;;;35.80;19.60;;;;;;5459763;26;20531;-71
2024/04/14 11:18:07;;;;;;;3.37;1.10;;;35.80;19.50;;;;;;5485290;26;20781;-70
2024/04/14 11:20:35;;;;;;;3.60;1.10;;;35.60;18.20;;;;;;5490529;26;20467;-70
2024/04/14 11:23:02;;;;;;;2.73;1.43;;;35.50;19.00;;;;;;5489721;26;20613;-70
2024/04/14 11:25:33;;;;;;;5.53;1.27;;;35.50;19.30;;;;;;5489170;26;21104;-71
2024/04/14 11:28:00;;;;;;;3.63;1.57;;;35.40;18.00;;;;;;5491151;26;20508;-70
2024/04/14 11:30:32;;;;;;;3.07;1.70;;;35.40;18.20;;;;;;5489943;26;21068;-70
2024/04/14 11:33:00;;;;;;;4.30;1.63;;;35.20;17.20;;;;;;5490957;26;20527;-71
2024/04/14 11:35:29;;;;;;;3.23;1.60;;;35.00;16.50;;;;;;5490663;26;20459;-70
2024/04/14 11:37:59;;;;;;;6.10;1.90;;;34.70;17.00;;;;;;5490929;26;20825;-70
2024/04/14 11:40:25;;;;;;;5.47;1.80;;;34.60;17.40;;;;;;5484769;26;20508;-72
2024/04/14 11:42:57;;;;;;;2.90;1.20;;;34.50;17.20;;;;;;5480616;26;20513;-71
2024/04/14 11:45:23;;;;;;;3.37;1.10;;;34.50;18.10;;;;;;5463214;26;20508;-70
2024/04/14 11:47:52;;;;;;;3.03;1.50;;;34.50;18.00;;;;;;5454449;26;20444;-70
2024/04/14 11:50:18;;;;;;;2.50;1.00;;;34.50;17.80;;;;;;5454631;26;20931;-70
2024/04/14 11:52:46;;;;;;;2.60;1.40;;;34.50;17.50;;;;;;5453912;26;20497;-71
2024/04/14 11:55:12;;;;;;;3.10;1.27;;;34.50;16.30;;;;;;5454636;26;20452;-70
2024/04/14 11:57:41;;;;;;;3.30;1.50;;;34.50;17.00;;;;;;5454320;26;20513;-70
2024/04/14 12:00:10;;;;;;;3.13;1.30;;;34.50;16.70;;;;;;5454063;26;20445;-71
2024/04/14 12:02:39;;;;;;;2.80;1.60;;;34.40;17.80;;;;;;5454099;26;20505;-71
2024/04/14 12:05:06;;;;;;;3.60;1.23;;;34.40;17.40;;;;;;5453644;26;20858;-70
2024/04/14 12:07:34;;;;;;;3.13;1.50;;;34.40;16.60;;;;;;5452872;26;20504;-70
2024/04/14 12:10:00;;;;;;;3.23;1.30;;;34.40;17.40;;;;;;5454088;26;20452;-70
2024/04/14 12:12:29;;;;;;;2.70;1.20;;;34.30;16.50;;;;;;5453983;26;20456;-70
2024/04/14 12:14:55;;;;;;;3.03;1.43;;;34.30;16.30;;;;;;5454397;26;20456;-70
2024/04/14 12:17:26;;;;;;;2.63;1.33;;;34.10;15.20;;;;;;5453793;26;20504;-70
2024/04/14 12:19:52;;;;;;;3.10;1.50;;;34.00;16.60;;;;;;5453935;26;20453;-70
2024/04/14 12:22:21;;;;;;;3.10;1.57;;;33.90;15.80;;;;;;5453845;26;20643;-71
2024/04/14 12:24:47;;;;;;;3.17;1.10;;;33.90;16.80;;;;;;5453765;26;20457;-71
2024/04/14 12:27:16;;;;;;;5.20;1.30;;;33.80;16.50;;;;;;5453818;26;21042;-70
2024/04/14 12:29:43;;;;;;;3.23;1.00;;;33.80;16.80;;;;;;5453503;26;20931;-70
2024/04/14 12:32:12;;;;;;;3.20;1.30;;;33.80;16.40;;;;;;5453782;26;20460;-71
2024/04/14 12:34:40;;;;;;;4.97;1.40;;;33.60;15.80;;;;;;5453523;26;20453;-70
2024/04/14 12:37:09;;;;;;;4.07;1.50;;;33.40;15.50;;;;;;5453744;26;20533;-70
2024/04/14 12:39:35;;;;;;;3.23;1.60;;;33.20;16.60;;;;;;5453654;26;20859;-70
2024/04/14 12:42:04;;;;;;;3.83;1.23;;;33.10;17.00;;;;;;5453493;26;20461;-70
2024/04/14 12:44:30;;;;;;;3.03;1.60;;;33.10;16.90;;;;;;5453539;26;20908;-70
2024/04/14 12:46:59;;;;;;;4.13;1.27;;;33.00;17.20;;;;;;5453448;26;20990;-70
2024/04/14 12:49:26;;;;;;;2.90;1.40;;;32.90;17.00;;;;;;5453545;26;20461;-70
2024/04/14 12:51:58;;;;;;;3.23;1.70;;;32.90;17.50;;;;;;5453382;26;20512;-70